Latest Coastal Weather Observations for Friendly Beaches

IDT60701

Issued at 7:42 am EDT Monday 18 November 2019 (issued every 10 minutes, with the page automatically refreshed every 10 minutes)

About coastal observations | Map of coastal stations | Coastal observations for TAS | Marine services | Other Formats
Station Details ID: 092114 Name: FRIENDLY BEACHES Lat: -42.00 Lon: 148.28 Height: 55.0 m
Data from the previous 72 hours. | See also: Recent months at Friendly Beaches
Date/Time
EDT
Wind Sea
Height
m
Swell Vis
km
Cloud Weather Temp
°C
Press
hPa
Rain since
9am
mm
Dir  Spd
kts
Gust
kts
Height
m
Period
s
Dir
18/07:30am WNW 11 19 - - - - - - - 12.3 1006.2 0.0
18/07:00am WNW 10 21 - - - - - - - 11.8 1006.3 0.0
18/06:30am WNW 7 15 - - - - - - - 11.6 1006.9 0.0
18/06:00am WNW 6 12 - - - - - - - 11.9 1006.9 0.0
18/05:30am NW 8 14 - - - - - - - 11.6 1006.8 0.0
18/05:00am CALM 0 3 - - - - - - - 9.5 1007.2 0.0
18/04:30am CALM 0 3 - - - - - - - 10.1 1007.4 0.0
18/04:00am W 8 12 - - - - - - - 10.6 1008.2 0.0
18/03:30am WNW 11 17 - - - - - - - 10.7 1008.7 0.0
18/03:00am W 10 16 - - - - - - - 11.3 1009.1 0.0
18/02:30am WNW 5 10 - - - - - - - 10.4 1009.3 0.0
18/02:00am NNW 2 5 - - - - - - - 9.9 1009.9 0.0
18/01:30am NNW 3 5 - - - - - - - 10.2 1010.5 0.0
18/01:00am NNW 4 5 - - - - - - - 10.5 1011.3 0.0
18/12:30am NNW 3 5 - - - - - - - 10.7 1011.3 0.0
18/12:00am N 3 5 - - - - - - - 10.4 1012.4 0.0
 
Date/Time
EDT
Wind Sea
Height
m
Swell Vis
km
Cloud Weather Temp
°C
Press
hPa
Rain since
9am
mm
Dir  Spd
kts
Gust
kts
Height
m
Period
s
Dir
17/11:30pm WNW 1 2 - - - - - - - 10.2 1013.0 0.0
17/11:00pm N 4 7 - - - - - - - 10.4 1013.2 0.0
17/10:30pm NNE 5 7 - - - - - - - 10.4 1013.6 0.0
17/10:00pm NNE 4 7 - - - - - - - 10.4 1014.4 0.0
17/09:30pm NNE 4 6 - - - - - - - 9.9 1014.7 0.0
17/09:00pm NNE 3 5 - - - - - - - 9.8 1014.9 0.0
17/08:30pm NE 4 7 - - - - - - - 10.6 1015.1 0.0
17/08:00pm NE 5 8 - - - - - - - 11.0 1015.1 0.0
17/07:30pm NE 6 9 - - - - - - - 12.0 1015.0 0.0
17/07:00pm NE 6 8 - - - - - - - 13.3 1014.9 0.0
17/06:30pm NE 6 9 - - - - - - - 13.5 1014.9 0.0
17/06:00pm NE 7 10 - - - - - - - 13.8 1014.9 0.0
17/05:30pm NE 7 12 - - - - - - - 14.8 1014.8 0.0
17/05:00pm NE 9 13 - - - - - - - 14.8 1014.7 0.0
17/04:30pm NE 9 14 - - - - - - - 15.7 1014.8 0.0
17/04:00pm ENE 11 15 - - - - - - - 15.8 1014.7 0.0
17/03:30pm ENE 9 13 - - - - - - - 15.4 1014.6 0.0
17/03:00pm ENE 10 14 - - - - - - - 15.9 1014.9 0.0
17/02:30pm ENE 8 14 - - - - - - - 14.4 1015.2 0.0
17/02:00pm S 7 12 - - - - - - - 17.4 1014.6 0.0
17/01:30pm WSW 9 18 - - - - - - - 17.8 1014.6 0.0
17/01:00pm WSW 8 16 - - - - - - - 17.7 1014.4 0.0
17/12:30pm W 8 16 - - - - - - - 15.3 1014.7 0.0
17/12:00pm SSW 10 18 - - - - - - - 15.0 1015.0 0.0
17/11:30am W 9 19 - - - - - - - 14.7 1015.2 0.0
17/11:00am SW 9 18 - - - - - - - 14.8 1015.2 0.0
17/10:30am SW 7 14 - - - - - - - 14.2 1015.1 0.0
17/10:00am WSW 8 14 - - - - - - - 13.9 1014.9 0.0
17/09:30am SW 11 20 - - - - - - - 13.2 1014.9 0.0
17/09:00am WSW 10 17 - - - - - - - 12.6 1014.8 0.0
17/08:30am WSW 10 19 - - - - - - - 11.4 1014.6 0.0
17/08:00am WSW 7 14 - - - - - - - 10.6 1014.3 0.0
17/07:30am WSW 8 15 - - - - - - - 10.1 1014.3 0.0
17/07:00am WSW 6 11 - - - - - - - 9.3 1014.0 0.0
17/06:30am SW 7 11 - - - - - - - 8.0 1013.6 0.0
17/06:00am WSW 6 9 - - - - - - - 7.6 1013.0 0.0
17/05:30am WSW 7 11 - - - - - - - 7.6 1012.7 0.0
17/05:00am WSW 8 13 - - - - - - - 8.0 1012.4 0.0
17/04:30am WSW 8 13 - - - - - - - 8.3 1012.1 0.0
17/04:00am SW 7 13 - - - - - - - 8.3 1011.9 0.0
17/03:30am WSW 7 11 - - - - - - - 8.8 1011.4 0.0
17/03:00am WSW 7 12 - - - - - - - 9.1 1011.4 0.0
17/02:30am SW 7 12 - - - - - - - 9.5 1011.1 0.0
17/02:00am WSW 7 12 - - - - - - - 9.8 1010.8 0.0
17/01:30am W 7 12 - - - - - - - 10.4 1010.5 0.0
17/01:00am SW 5 8 - - - - - - - 10.6 1011.0 0.0
17/12:30am SW 5 8 - - - - - - - 10.6 1010.7 0.0
17/12:00am WSW 4 8 - - - - - - - 10.8 1010.5 0.0
 
Date/Time
EDT
Wind Sea
Height
m
Swell Vis
km
Cloud Weather Temp
°C
Press
hPa
Rain since
9am
mm
Dir  Spd
kts
Gust
kts
Height
m
Period
s
Dir
16/11:30pm SW 5 8 - - - - - - - 11.0 1010.4 0.0
16/11:00pm SW 6 10 - - - - - - - 10.9 1010.5 0.0
16/10:30pm WSW 7 11 - - - - - - - 10.8 1010.3 0.0
16/10:00pm SW 7 11 - - - - - - - 10.9 1010.3 0.0
16/09:30pm SW 6 8 - - - - - - - 10.8 1010.1 0.0
16/09:00pm SW 6 10 - - - - - - - 11.3 1009.9 0.0
16/08:30pm SW 11 18 - - - - - - - 11.5 1009.2 0.0
16/08:00pm WSW 12 18 - - - - - - - 12.3 1008.6 0.0
16/07:30pm WSW 10 18 - - - - - - - 14.1 1008.4 0.0
16/07:00pm WSW 10 18 - - - - - - - 14.5 1007.6 0.0
16/06:30pm SW 9 16 - - - - - - - 15.0 1007.3 0.0
16/06:00pm SSW 11 18 - - - - - - - 16.0 1007.0 0.0
16/05:30pm WSW 12 20 - - - - - - - 16.0 1006.9 0.0
16/05:00pm WSW 12 22 - - - - - - - 17.1 1006.6 0.0
16/04:30pm W 14 23 - - - - - - - 18.0 1006.5 0.0
16/04:00pm SW 14 26 - - - - - - - 18.6 1006.4 0.0
16/03:30pm WSW 15 26 - - - - - - - 18.6 1006.1 0.0
16/03:00pm WSW 12 24 - - - - - - - 18.8 1006.0 0.0
16/02:30pm W 12 22 - - - - - - - 19.4 1006.2 0.0
16/02:00pm WSW 12 18 - - - - - - - 18.7 1006.3 0.0
16/01:30pm WSW 13 21 - - - - - - - 18.1 1006.5 0.0
16/01:00pm W 9 17 - - - - - - - 17.3 1006.7 0.0
16/12:30pm W 7 17 - - - - - - - 18.0 1006.9 0.0
16/12:00pm W 14 26 - - - - - - - 17.5 1007.2 0.0
16/11:54am WSW 15 26 - - - - - - - 17.1 1007.2 0.0
16/11:30am WSW 12 22 - - - - - - - 16.4 1007.5 0.0
16/11:00am W 8 20 - - - - - - - 14.1 1007.7 0.0
16/10:30am W 8 16 - - - - - - - 14.6 1007.9 0.0
16/10:00am W 10 17 - - - - - - - 13.9 1008.0 0.0
16/09:30am W 7 16 - - - - - - - 13.4 1008.0 0.0
16/09:00am W 10 18 - - - - - - - 12.9 1008.1 0.0
16/08:30am W 7 19 - - - - - - - 12.3 1007.9 0.0
16/08:00am WNW 7 13 - - - - - - - 11.5 1007.8 0.0
16/07:30am WNW 7 12 - - - - - - - 10.6 1007.6 0.0
16/07:00am WNW 5 8 - - - - - - - 8.9 1007.6 0.0
16/06:30am WNW 4 7 - - - - - - - 7.6 1007.2 0.0
16/06:00am WNW 6 9 - - - - - - - 7.3 1006.9 0.0
16/05:30am WNW 7 11 - - - - - - - 7.5 1006.5 0.0
16/05:00am WNW 7 12 - - - - - - - 7.4 1006.2 0.0
16/04:30am WNW 6 10 - - - - - - - 7.0 1005.9 0.0
16/04:00am WNW 5 8 - - - - - - - 7.2 1006.0 0.0
16/03:30am WNW 7 13 - - - - - - - 7.8 1005.8 0.0
16/03:00am WNW 8 13 - - - - - - - 7.8 1005.7 0.0
16/02:30am WNW 5 8 - - - - - - - 8.0 1005.8 0.0
16/02:00am WNW 6 9 - - - - - - - 8.3 1005.8 0.0
16/01:30am W 5 11 - - - - - - - 8.4 1005.9 0.0
16/01:00am W 7 12 - - - - - - - 9.1 1005.7 0.0
16/12:30am W 10 18 - - - - - - - 9.6 1005.5 0.0
16/12:00am WNW 5 9 - - - - - - - 8.3 1005.6 0.0
 
Date/Time
EDT
Wind Sea
Height
m
Swell Vis
km
Cloud Weather Temp
°C
Press
hPa
Rain since
9am
mm
Dir  Spd
kts
Gust
kts
Height
m
Period
s
Dir
15/11:30pm SW 2 3 - - - - - - - 7.9 1005.7 0.0
15/11:00pm NNW 4 5 - - - - - - - 8.8 1005.1 0.0
15/10:30pm SSW 1 3 - - - - - - - 9.5 1005.1 0.0
15/10:00pm W 4 8 - - - - - - - 10.3 1004.9 0.0
15/09:30pm WSW 7 12 - - - - - - - 10.8 1004.3 0.0
15/09:00pm SW 9 20 - - - - - - - 10.6 1003.7 0.0
15/08:30pm WSW 14 25 - - - - - - - 11.3 1003.0 0.0
15/08:00pm WSW 11 20 - - - - - - - 11.7 1003.0 0.0
15/07:30pm WSW 11 21 - - - - - - - 12.3 1002.6 0.0
15/07:00pm WSW 11 20 - - - - - - - 13.4 1002.2 0.0
15/06:30pm WSW 12 20 - - - - - - - 14.0 1001.6 0.0
15/06:00pm WSW 13 23 - - - - - - - 14.6 1001.1 0.0
15/05:30pm WSW 11 20 - - - - - - - 15.3 1000.5 0.0
15/05:02pm WSW 15 27 - - - - - - - 14.1 1000.1 0.0
15/05:00pm WSW 14 23 - - - - - - - 14.3 1000.0 0.0
15/04:40pm SW 17 29 - - - - - - - 14.3 999.9 0.0
15/04:30pm WSW 17 27 - - - - - - - 14.7 999.7 0.0
15/04:08pm WSW 15 25 - - - - - - - 15.4 998.7 0.0
15/04:00pm WSW 11 22 - - - - - - - 16.5 998.4 0.0
15/03:30pm WSW 11 19 - - - - - - - 17.0 998.1 0.0
15/03:00pm WNW 8 15 - - - - - - - 17.7 997.9 0.0
15/02:30pm W 11 19 - - - - - - - 18.5 997.9 0.0
15/02:00pm WNW 8 17 - - - - - - - 18.4 997.8 0.0
15/01:30pm W 10 18 - - - - - - - 18.4 997.7 0.0
15/01:00pm W 11 20 - - - - - - - 19.0 997.9 0.0
15/12:30pm W 10 20 - - - - - - - 19.5 998.1 0.0
15/12:00pm WNW 10 17 - - - - - - - 17.6 998.4 0.0
15/11:30am WNW 9 16 - - - - - - - 17.4 998.5 0.0
15/11:00am NW 10 20 - - - - - - - 17.8 998.7 0.0
15/10:30am W 11 18 - - - - - - - 17.7 998.8 0.0
15/10:00am W 10 18 - - - - - - - 15.8 998.8 0.0
15/09:30am WNW 10 17 - - - - - - - 16.4 999.1 0.0
15/09:00am W 9 15 - - - - - - - 16.0 999.0 -
15/08:30am W 10 17 - - - - - - - 14.9 998.8 -
15/08:00am W 7 15 - - - - - - - 14.7 998.7 0.0

Other formats

Comma delimited format used in spreadsheet applications
http://www.bom.gov.au/fwo/IDT60701/IDT60701.94987.axf

JavaScript Object Notation format (JSON) in row-major order
http://www.bom.gov.au/fwo/IDT60701/IDT60701.94987.json

Data quality

Most of these data are generated automatically and are frequently updated. Quality checks on data are not normally performed. It is possible for incorrect values to appear. Refer to information at About Latest Weather Observations and please check the disclaimer before using these data.